createdAt,value
2019-02-23T00:00:48.330Z,20.87
2019-02-23T00:01:48.335Z,20.77
2019-02-23T00:02:48.336Z,20.77
2019-02-23T00:03:48.338Z,20.77
2019-02-23T00:04:48.343Z,20.77
2019-02-23T00:05:48.344Z,20.68
2019-02-23T00:06:48.349Z,20.77
2019-02-23T00:07:48.349Z,20.77
2019-02-23T00:08:48.353Z,20.68
2019-02-23T00:09:48.358Z,20.77
2019-02-23T00:10:48.359Z,20.87
2019-02-23T00:11:48.362Z,20.58
2019-02-23T00:12:48.365Z,20.77
2019-02-23T00:13:48.369Z,20.77
2019-02-23T00:14:48.371Z,20.87
2019-02-23T00:15:48.373Z,20.87
2019-02-23T00:16:48.375Z,20.87
2019-02-23T00:17:48.381Z,20.77
2019-02-23T00:18:48.384Z,20.68
2019-02-23T00:19:48.387Z,20.77
2019-02-23T00:20:48.390Z,20.87
2019-02-23T00:21:48.392Z,20.77
2019-02-23T00:22:48.397Z,20.77
2019-02-23T00:23:48.400Z,20.77
2019-02-23T00:24:48.407Z,20.77
2019-02-23T00:25:48.404Z,20.77
2019-02-23T00:26:48.407Z,20.87
2019-02-23T00:27:48.411Z,20.87
2019-02-23T00:28:48.413Z,20.58
2019-02-23T00:29:48.421Z,20.87
2019-02-23T00:30:48.422Z,20.58
2019-02-23T00:31:48.422Z,20.87
2019-02-23T00:32:48.425Z,20.68
2019-02-23T00:33:48.428Z,20.87
2019-02-23T00:34:48.682Z,20.77
2019-02-23T00:35:48.435Z,20.58
2019-02-23T00:36:48.438Z,20.77
2019-02-23T00:37:48.439Z,20.68
2019-02-23T00:38:48.444Z,20.77
2019-02-23T00:39:48.447Z,20.68
2019-02-23T00:40:48.449Z,20.68
2019-02-23T00:41:48.452Z,20.87
2019-02-23T00:42:48.455Z,20.77
2019-02-23T00:43:48.457Z,20.87
2019-02-23T00:44:48.467Z,20.68
2019-02-23T00:45:48.464Z,20.87
2019-02-23T00:46:48.568Z,20.68
2019-02-23T00:47:48.470Z,20.68
2019-02-23T00:48:48.472Z,20.68
2019-02-23T00:49:48.481Z,20.87
2019-02-23T00:50:48.480Z,20.58
2019-02-23T00:51:48.482Z,20.77
2019-02-23T00:52:48.489Z,20.68
2019-02-23T00:53:48.489Z,20.87
2019-02-23T00:54:48.490Z,20.68
2019-02-23T00:55:48.493Z,20.68
2019-02-23T00:56:48.496Z,20.68
2019-02-23T00:57:48.499Z,20.68
2019-02-23T00:58:48.503Z,20.68
2019-02-23T00:59:48.506Z,20.77
2019-02-23T01:00:48.509Z,20.77
2019-02-23T01:01:48.611Z,20.68
2019-02-23T01:02:48.514Z,20.68
2019-02-23T01:03:48.519Z,20.77
2019-02-23T01:04:48.520Z,20.77
2019-02-23T01:05:48.523Z,20.68
2019-02-23T01:06:48.526Z,20.77
2019-02-23T01:07:48.528Z,20.97
2019-02-23T01:08:48.536Z,20.77
2019-02-23T01:09:48.537Z,20.77
2019-02-23T01:10:57.653Z,20.77
2019-02-23T01:11:48.540Z,20.87
2019-02-23T01:12:48.544Z,20.87
2019-02-23T01:13:48.547Z,20.77
2019-02-23T01:14:48.550Z,20.68
2019-02-23T01:15:48.554Z,20.87
2019-02-23T01:16:48.556Z,20.77
2019-02-23T01:17:48.559Z,20.87
2019-02-23T01:18:48.562Z,20.87
2019-02-23T01:19:48.564Z,20.87
2019-02-23T01:20:48.568Z,20.87
2019-02-23T01:21:48.571Z,20.87
2019-02-23T01:22:48.583Z,20.58
2019-02-23T01:23:48.580Z,20.87
2019-02-23T01:24:48.580Z,20.87
2019-02-23T01:25:48.584Z,20.68
2019-02-23T01:26:48.587Z,20.87
2019-02-23T01:27:48.589Z,20.87
2019-02-23T01:28:48.592Z,20.87
2019-02-23T01:29:48.594Z,20.87
2019-02-23T01:30:48.598Z,20.87
2019-02-23T01:31:48.600Z,20.87
2019-02-23T01:32:48.603Z,20.87
2019-02-23T01:33:48.606Z,20.87
2019-02-23T01:34:48.610Z,20.77
2019-02-23T01:35:48.620Z,20.77
2019-02-23T01:36:48.621Z,20.68
2019-02-23T01:37:48.618Z,20.77
2019-02-23T01:38:48.621Z,20.77
2019-02-23T01:39:48.628Z,20.77
2019-02-23T01:40:48.680Z,20.77
2019-02-23T01:41:48.630Z,20.68
2019-02-23T01:42:48.633Z,20.77
2019-02-23T01:43:48.636Z,20.77
2019-02-23T01:44:48.638Z,20.77
2019-02-23T01:45:48.641Z,20.68
2019-02-23T01:46:48.645Z,20.68
2019-02-23T01:47:48.647Z,20.77
2019-02-23T01:48:48.650Z,20.77
2019-02-23T01:49:58.573Z,20.68
2019-02-23T01:50:48.657Z,20.68
2019-02-23T01:51:48.658Z,20.87
2019-02-23T01:52:48.663Z,20.77
2019-02-23T01:53:48.669Z,20.77
2019-02-23T01:54:48.668Z,20.68
2019-02-23T01:55:48.673Z,20.68
2019-02-23T01:56:48.673Z,20.68
2019-02-23T01:57:48.675Z,20.77
2019-02-23T01:58:48.681Z,20.77
2019-02-23T01:59:48.682Z,20.58
2019-02-23T02:00:48.733Z,20.77
2019-02-23T02:01:48.689Z,20.58
2019-02-23T02:02:48.692Z,20.77
2019-02-23T02:03:48.694Z,20.77
2019-02-23T02:04:48.697Z,20.87
2019-02-23T02:05:48.700Z,20.77
2019-02-23T02:06:48.707Z,20.77
2019-02-23T02:07:48.704Z,20.77
2019-02-23T02:08:48.709Z,20.77
2019-02-23T02:09:48.712Z,20.68
2019-02-23T02:10:48.714Z,20.68
2019-02-23T02:11:48.719Z,20.77
2019-02-23T02:12:48.722Z,20.77
2019-02-23T02:13:48.723Z,20.68
2019-02-23T02:14:48.781Z,20.77
2019-02-23T02:15:48.730Z,20.68
2019-02-23T02:16:48.732Z,20.68
2019-02-23T02:17:48.737Z,20.87
2019-02-23T02:18:48.739Z,20.68
2019-02-23T02:19:48.741Z,20.87
2019-02-23T02:20:48.745Z,20.68
2019-02-23T02:21:48.747Z,20.77
2019-02-23T02:22:48.761Z,20.68
2019-02-23T02:23:48.755Z,20.68
2019-02-23T02:24:48.756Z,20.68
2019-02-23T02:25:48.809Z,20.87
2019-02-23T02:26:48.764Z,20.58
2019-02-23T02:27:48.765Z,20.77
2019-02-23T02:28:48.770Z,20.68
2019-02-23T02:29:48.776Z,20.77
2019-02-23T02:30:48.779Z,20.68
2019-02-23T02:31:48.776Z,20.58
2019-02-23T02:32:48.780Z,20.68
2019-02-23T02:33:48.784Z,20.87
2019-02-23T02:34:48.791Z,20.77
2019-02-23T02:35:48.789Z,20.68
2019-02-23T02:36:48.796Z,20.68
2019-02-23T02:37:48.795Z,20.77
2019-02-23T02:38:48.798Z,20.77
2019-02-23T02:39:48.801Z,20.58
2019-02-23T02:40:48.853Z,20.77
2019-02-23T02:41:48.811Z,20.77
2019-02-23T02:42:48.811Z,20.77
2019-02-23T02:43:48.815Z,20.68
2019-02-23T02:44:48.815Z,20.68
2019-02-23T02:45:48.819Z,20.77
2019-02-23T02:46:48.822Z,20.77
2019-02-23T02:47:48.830Z,20.77
2019-02-23T02:48:48.828Z,20.68
2019-02-23T02:49:48.835Z,20.77
2019-02-23T02:50:48.836Z,20.68
2019-02-23T02:51:48.837Z,20.77
2019-02-23T02:52:48.842Z,20.87
2019-02-23T02:53:48.843Z,20.68
2019-02-23T02:54:48.844Z,20.68
2019-02-23T02:55:48.846Z,20.68
2019-02-23T02:56:48.851Z,20.68
2019-02-23T02:57:48.853Z,20.77
2019-02-23T02:58:48.859Z,20.77
2019-02-23T02:59:48.960Z,20.77
2019-02-23T03:00:49.012Z,20.68
2019-02-23T03:01:48.916Z,20.87
2019-02-23T03:02:48.870Z,20.87
2019-02-23T03:03:48.870Z,20.77
2019-02-23T03:04:48.873Z,20.77
2019-02-23T03:05:48.878Z,20.58
2019-02-23T03:06:48.880Z,20.68
2019-02-23T03:07:48.884Z,20.68
2019-02-23T03:08:48.885Z,20.77
2019-02-23T03:09:49.139Z,20.87
2019-02-23T03:10:48.891Z,20.77
2019-02-23T03:11:48.894Z,20.87
2019-02-23T03:12:48.945Z,20.77
2019-02-23T03:13:48.900Z,20.58
2019-02-23T03:14:48.903Z,20.68
2019-02-23T03:15:48.907Z,20.77
2019-02-23T03:16:48.913Z,20.68
2019-02-23T03:17:48.915Z,20.77
2019-02-23T03:18:48.920Z,20.68
2019-02-23T03:19:48.917Z,20.58
2019-02-23T03:20:48.921Z,20.68
2019-02-23T03:21:48.927Z,20.87
2019-02-23T03:22:48.928Z,20.87
2019-02-23T03:23:48.929Z,20.77
2019-02-23T03:24:48.933Z,20.77
2019-02-23T03:25:48.935Z,20.68
2019-02-23T03:26:48.940Z,20.68
2019-02-23T03:27:48.942Z,20.68
2019-02-23T03:28:48.948Z,20.68
2019-02-23T03:29:48.947Z,20.68
2019-02-23T03:30:48.951Z,20.87
2019-02-23T03:31:48.952Z,20.68
2019-02-23T03:32:48.960Z,20.87
2019-02-23T03:33:48.961Z,20.87
2019-02-23T03:34:48.963Z,20.68
2019-02-23T03:35:48.965Z,20.58
2019-02-23T03:36:48.967Z,20.87
2019-02-23T03:37:48.973Z,20.68
2019-02-23T03:38:48.974Z,20.68
2019-02-23T03:39:48.976Z,20.77
2019-02-23T03:40:48.985Z,20.68
2019-02-23T03:41:48.982Z,20.77
2019-02-23T03:42:48.986Z,20.68
2019-02-23T03:43:48.987Z,20.77
2019-02-23T03:44:48.991Z,20.77
2019-02-23T03:45:48.994Z,20.77
2019-02-23T03:46:48.999Z,20.77
2019-02-23T03:47:49.000Z,20.77
2019-02-23T03:48:49.002Z,20.77
2019-02-23T03:49:49.066Z,20.77
2019-02-23T03:50:49.666Z,20.68
2019-02-23T03:51:49.011Z,20.87
2019-02-23T03:52:49.014Z,20.77
2019-02-23T03:53:49.017Z,20.68
2019-02-23T03:54:49.032Z,20.87
2019-02-23T03:55:49.021Z,20.77
2019-02-23T03:56:49.026Z,20.77
2019-02-23T03:57:49.029Z,20.68
2019-02-23T03:58:49.032Z,20.87
2019-02-23T03:59:49.034Z,20.87
2019-02-23T04:00:49.058Z,20.87
2019-02-23T04:01:49.044Z,20.77
2019-02-23T04:02:49.055Z,20.77
2019-02-23T04:03:49.046Z,20.77
2019-02-23T04:04:49.050Z,20.77
2019-02-23T04:05:49.058Z,20.77
2019-02-23T04:06:49.060Z,20.77
2019-02-23T04:07:49.057Z,20.87
2019-02-23T04:08:49.061Z,20.77
2019-02-23T04:09:49.215Z,20.68
2019-02-23T04:10:49.067Z,20.87
2019-02-23T04:11:49.069Z,20.87
2019-02-23T04:12:49.072Z,20.77
2019-02-23T04:13:49.077Z,20.77
2019-02-23T04:14:49.081Z,20.77
2019-02-23T04:15:49.081Z,20.77
2019-02-23T04:16:49.084Z,20.87
2019-02-23T04:17:49.093Z,20.77
2019-02-23T04:18:49.090Z,20.77
2019-02-23T04:19:49.092Z,20.68
2019-02-23T04:21:00.961Z,20.77
2019-02-23T04:21:49.099Z,20.77
2019-02-23T04:22:49.109Z,20.87
2019-02-23T04:23:49.104Z,20.77
2019-02-23T04:24:49.107Z,20.87
2019-02-23T04:25:49.110Z,20.87
2019-02-23T04:26:49.113Z,20.87
2019-02-23T04:27:49.116Z,20.77
2019-02-23T04:28:49.120Z,20.68
2019-02-23T04:29:49.214Z,20.68
2019-02-23T04:30:49.125Z,20.77
2019-02-23T04:31:49.127Z,20.87
2019-02-23T04:32:49.138Z,20.77
2019-02-23T04:33:49.134Z,20.68
2019-02-23T04:34:49.139Z,20.77
2019-02-23T04:35:49.145Z,20.68
2019-02-23T04:36:49.144Z,20.87
2019-02-23T04:37:49.145Z,20.68
2019-02-23T04:38:49.156Z,20.68
2019-02-23T04:39:49.150Z,20.77
2019-02-23T04:40:49.154Z,20.77
2019-02-23T04:41:49.190Z,20.87
2019-02-23T04:42:49.160Z,20.77
2019-02-23T04:43:49.163Z,20.77
2019-02-23T04:44:49.182Z,20.77
2019-02-23T04:45:49.320Z,20.77
2019-02-23T04:46:49.172Z,21.16
2019-02-23T04:47:49.176Z,21.16
2019-02-23T04:48:49.178Z,20.76
2019-02-23T04:49:49.182Z,20.87
2019-02-23T04:50:49.184Z,20.77
2019-02-23T04:51:49.186Z,20.77
2019-02-23T04:52:49.189Z,20.77
2019-02-23T04:53:49.192Z,20.77
2019-02-23T04:54:49.198Z,20.48
2019-02-23T04:55:49.229Z,20.77
2019-02-23T04:56:49.200Z,20.87
2019-02-23T04:57:49.204Z,20.97
2019-02-23T04:58:49.207Z,20.87
2019-02-23T04:59:49.209Z,20.87
2019-02-23T05:00:49.220Z,20.68
2019-02-23T05:01:49.291Z,20.77
2019-02-23T05:02:49.215Z,20.87
2019-02-23T05:03:49.224Z,20.77
2019-02-23T05:04:49.224Z,20.77
2019-02-23T05:05:49.228Z,20.68
2019-02-23T05:06:49.230Z,20.87
2019-02-23T05:07:49.233Z,20.77
2019-02-23T05:08:49.236Z,20.87
2019-02-23T05:09:49.288Z,20.87
2019-02-23T05:10:49.242Z,20.77
2019-02-23T05:11:51.531Z,20.77
2019-02-23T05:12:49.247Z,20.87
2019-02-23T05:13:49.250Z,20.68
2019-02-23T05:14:49.253Z,20.68
2019-02-23T05:15:49.255Z,20.77
2019-02-23T05:16:49.261Z,20.77
2019-02-23T05:17:49.262Z,20.87
2019-02-23T05:18:49.265Z,20.97
2019-02-23T05:19:49.318Z,20.87
2019-02-23T05:20:49.273Z,20.87
2019-02-23T05:21:49.274Z,20.77
2019-02-23T05:22:49.276Z,20.77
2019-02-23T05:23:49.278Z,20.97
2019-02-23T05:24:49.349Z,20.87
2019-02-23T05:25:49.293Z,20.87
2019-02-23T05:26:49.288Z,20.77
2019-02-23T05:27:49.293Z,20.77
2019-02-23T05:28:49.393Z,20.68
2019-02-23T05:29:49.497Z,20.68
2019-02-23T05:30:49.299Z,20.77
2019-02-23T05:31:49.302Z,20.87
2019-02-23T05:32:49.306Z,20.77
2019-02-23T05:33:49.308Z,20.58
2019-02-23T05:34:49.313Z,20.87
2019-02-23T05:35:49.314Z,20.68
2019-02-23T05:36:49.317Z,20.87
2019-02-23T05:37:49.320Z,20.87
2019-02-23T05:38:49.325Z,20.68
2019-02-23T05:39:49.336Z,20.87
2019-02-23T05:40:49.329Z,20.68
2019-02-23T05:41:49.335Z,20.77
2019-02-23T05:43:00.117Z,20.68
2019-02-23T05:43:49.386Z,20.58
2019-02-23T05:44:49.390Z,20.68
2019-02-23T05:45:49.350Z,20.68
2019-02-23T05:46:49.345Z,20.77
2019-02-23T05:47:49.349Z,20.77
2019-02-23T05:48:49.352Z,20.77
2019-02-23T05:49:49.408Z,20.77
2019-02-23T05:50:49.357Z,20.77
2019-02-23T05:51:49.363Z,20.68
2019-02-23T05:52:49.363Z,20.87
2019-02-23T05:53:49.367Z,20.68
2019-02-23T05:54:49.422Z,20.87
2019-02-23T05:55:49.377Z,20.77
2019-02-23T05:56:49.374Z,20.87
2019-02-23T05:57:49.377Z,20.68
2019-02-23T05:58:49.431Z,20.68
2019-02-23T05:59:49.435Z,20.87
2019-02-23T06:00:49.387Z,20.68
2019-02-23T06:01:49.389Z,20.87
2019-02-23T06:02:49.396Z,20.77
2019-02-23T06:03:49.395Z,20.77
2019-02-23T06:04:49.401Z,20.87
2019-02-23T06:05:49.401Z,20.68
2019-02-23T06:06:49.413Z,20.68
2019-02-23T06:07:49.407Z,20.87
2019-02-23T06:08:49.416Z,20.77
2019-02-23T06:09:49.415Z,21.16
2019-02-23T06:10:49.467Z,20.77
2019-02-23T06:11:49.422Z,20.87
2019-02-23T06:12:49.421Z,20.77
2019-02-23T06:13:49.424Z,20.77
2019-02-23T06:14:49.428Z,20.77
2019-02-23T06:15:49.439Z,20.87
2019-02-23T06:16:49.436Z,20.48
2019-02-23T06:17:49.435Z,20.48
2019-02-23T06:18:49.438Z,20.48
2019-02-23T06:19:49.441Z,20.97
2019-02-23T06:20:49.446Z,21.06
2019-02-23T06:21:54.091Z,20.97
2019-02-23T06:22:49.465Z,21.16
2019-02-23T06:23:49.453Z,21.16
2019-02-23T06:24:49.506Z,21.16
2019-02-23T06:25:49.508Z,21.16
2019-02-23T06:26:49.566Z,20.87
2019-02-23T06:27:49.464Z,20.77
2019-02-23T06:28:49.467Z,20.77
2019-02-23T06:29:49.526Z,20.87
2019-02-23T06:30:49.473Z,20.87
2019-02-23T06:31:49.476Z,20.77
2019-02-23T06:32:49.478Z,20.77
2019-02-23T06:33:49.482Z,20.86
2019-02-23T06:34:49.537Z,20.77
2019-02-23T06:35:49.537Z,20.77
2019-02-23T06:36:49.492Z,20.68
2019-02-23T06:37:49.504Z,20.77
2019-02-23T06:38:49.506Z,20.77
2019-02-23T06:39:49.506Z,20.96
2019-02-23T06:40:49.505Z,21.06
2019-02-23T06:41:49.506Z,20.58
2019-02-23T06:42:49.508Z,21.06
2019-02-23T06:43:49.512Z,20.47
2019-02-23T06:44:49.513Z,20.58
2019-02-23T06:45:49.616Z,20.57
2019-02-23T06:46:49.521Z,20.58
2019-02-23T06:47:49.521Z,20.48
2019-02-23T06:48:49.524Z,20.48
2019-02-23T06:49:49.533Z,20.48
2019-02-23T06:50:49.532Z,20.68
2019-02-23T06:51:49.532Z,20.48
2019-02-23T06:52:49.536Z,20.58
2019-02-23T06:53:49.542Z,20.48
2019-02-23T06:54:49.542Z,20.87
2019-02-23T06:55:49.544Z,20.77
2019-02-23T06:56:49.548Z,20.77
2019-02-23T06:57:49.554Z,20.77
2019-02-23T06:58:49.554Z,20.58
2019-02-23T06:59:49.612Z,20.57
2019-02-23T07:00:49.611Z,20.47
2019-02-23T07:01:49.562Z,20.48
2019-02-23T07:02:49.567Z,20.86
2019-02-23T07:03:49.568Z,20.67
2019-02-23T07:04:49.572Z,20.58
2019-02-23T07:05:49.582Z,20.97
2019-02-23T07:06:49.583Z,20.58
2019-02-23T07:07:49.699Z,20.47
2019-02-23T07:08:49.591Z,20.67
2019-02-23T07:09:49.587Z,20.68
2019-02-23T07:10:49.588Z,20.67
2019-02-23T07:11:49.590Z,20.58
2019-02-23T07:12:49.605Z,20.86
2019-02-23T07:13:49.597Z,20.47
2019-02-23T07:14:49.601Z,20.76
2019-02-23T07:15:49.602Z,20.47
2019-02-23T07:16:49.608Z,20.37
2019-02-23T07:17:49.608Z,20.67
2019-02-23T07:18:49.611Z,20.86
2019-02-23T07:19:49.613Z,20.87
2019-02-23T07:20:49.617Z,20.67
2019-02-23T07:21:49.620Z,20.86
2019-02-23T07:22:49.623Z,20.77
2019-02-23T07:23:49.622Z,20.86
2019-02-23T07:24:49.628Z,20.47
2019-02-23T07:25:49.631Z,20.76
2019-02-23T07:26:49.635Z,20.67
2019-02-23T07:27:49.637Z,20.86
2019-02-23T07:28:49.639Z,20.96
2019-02-23T07:29:49.643Z,20.57
2019-02-23T07:30:49.655Z,20.86
2019-02-23T07:31:49.648Z,20.76
2019-02-23T07:32:49.651Z,20.37
2019-02-23T07:33:49.655Z,20.96
2019-02-23T07:34:49.665Z,20.57
2019-02-23T07:35:49.659Z,20.67
2019-02-23T07:36:49.712Z,20.96
2019-02-23T07:37:49.669Z,20.86
2019-02-23T07:38:49.670Z,20.67
2019-02-23T07:39:49.671Z,20.68
2019-02-23T07:40:49.674Z,20.86
2019-02-23T07:41:49.683Z,20.96
2019-02-23T07:42:49.680Z,20.76
2019-02-23T07:43:49.683Z,20.76
2019-02-23T07:44:49.686Z,20.67
2019-02-23T07:45:49.689Z,20.37
2019-02-23T07:46:49.741Z,20.96
2019-02-23T07:47:49.694Z,20.57
2019-02-23T07:48:49.697Z,20.96
2019-02-23T07:49:49.750Z,20.57
2019-02-23T07:50:49.703Z,20.57
2019-02-23T07:51:49.706Z,20.57
2019-02-23T07:52:49.713Z,20.76
2019-02-23T07:53:49.721Z,20.57
2019-02-23T07:54:49.714Z,20.39
2019-02-23T07:55:49.719Z,20.76
2019-02-23T07:56:49.725Z,20.96
2019-02-23T07:57:49.722Z,20.57
2019-02-23T07:58:49.726Z,20.67
2019-02-23T07:59:49.727Z,20.47
2019-02-23T08:00:49.780Z,20.47
2019-02-23T08:01:49.732Z,20.57
2019-02-23T08:02:49.744Z,20.47
2019-02-23T08:03:49.740Z,20.57
2019-02-23T08:04:49.792Z,20.47
2019-02-23T08:05:49.747Z,20.47
2019-02-23T08:06:49.749Z,20.37
2019-02-23T08:07:49.751Z,20.86
2019-02-23T08:08:49.755Z,20.57
2019-02-23T08:09:49.756Z,20.47
2019-02-23T08:10:49.810Z,20.47
2019-02-23T08:11:49.762Z,20.57
2019-02-23T08:12:49.765Z,20.39
2019-02-23T08:13:49.768Z,20.37
2019-02-23T08:14:49.980Z,20.37
2019-02-23T08:15:49.773Z,20.67
2019-02-23T08:16:49.777Z,20.57
2019-02-23T08:17:49.779Z,20.77
2019-02-23T08:18:49.781Z,20.57
2019-02-23T08:19:49.834Z,20.86
2019-02-23T08:20:49.787Z,20.57
2019-02-23T08:21:49.790Z,20.86
2019-02-23T08:22:49.794Z,20.96
2019-02-23T08:23:49.847Z,20.37
2019-02-23T08:24:49.799Z,20.76
2019-02-23T08:25:49.802Z,20.47
2019-02-23T08:26:49.805Z,20.57
2019-02-23T08:27:49.815Z,20.47
2019-02-23T08:28:49.810Z,20.57
2019-02-23T08:29:49.822Z,20.37
2019-02-23T08:30:49.866Z,20.28
2019-02-23T08:31:49.869Z,20.37
2019-02-23T08:32:49.822Z,20.37
2019-02-23T08:33:49.826Z,20.37
2019-02-23T08:34:49.827Z,20.37
2019-02-23T08:35:49.835Z,20.18
2019-02-23T08:36:49.835Z,20.37
2019-02-23T08:37:49.836Z,20.28
2019-02-23T08:38:49.837Z,20.57
2019-02-23T08:39:50.042Z,20.37
2019-02-23T08:40:49.845Z,20.47
2019-02-23T08:41:49.848Z,20.47
2019-02-23T08:42:49.900Z,20.18
2019-02-23T08:43:49.902Z,20.08
2019-02-23T08:44:49.855Z,20.28
2019-02-23T08:45:49.858Z,20.37
2019-02-23T08:46:49.863Z,20.28
2019-02-23T08:47:49.864Z,20.18
2019-02-23T08:48:49.867Z,19.99
2019-02-23T08:49:49.872Z,20.18
2019-02-23T08:50:49.924Z,19.99
2019-02-23T08:51:49.873Z,20.18
2019-02-23T08:52:50.480Z,20.37
2019-02-23T08:53:49.882Z,20.37
2019-02-23T08:54:49.883Z,19.99
2019-02-23T08:55:49.886Z,20.18
2019-02-23T08:56:49.889Z,20.08
2019-02-23T08:57:50.042Z,20.18
2019-02-23T08:58:49.898Z,20.08
2019-02-23T08:59:50.051Z,20.08
2019-02-23T09:00:50.056Z,19.99
2019-02-23T09:01:49.958Z,20.18
2019-02-23T09:02:49.907Z,20.08
2019-02-23T09:03:49.908Z,20.18
2019-02-23T09:04:49.911Z,20.18
2019-02-23T09:05:49.916Z,20.08
2019-02-23T09:06:49.971Z,20.18
2019-02-23T09:07:49.921Z,20.18
2019-02-23T09:08:49.924Z,20.08
2019-02-23T09:09:50.227Z,20.08
2019-02-23T09:10:49.933Z,20.18
2019-02-23T09:11:49.932Z,20.08
2019-02-23T09:12:49.938Z,20.08
2019-02-23T09:13:49.937Z,20.08
2019-02-23T09:14:49.940Z,20.08
2019-02-23T09:15:49.942Z,20.18
2019-02-23T09:16:49.951Z,20.08
2019-02-23T09:17:49.999Z,20.08
2019-02-23T09:18:49.951Z,20.18
2019-02-23T09:19:49.956Z,20.08
2019-02-23T09:20:51.832Z,20.08
2019-02-23T09:21:49.961Z,20.18
2019-02-23T09:22:59.863Z,20.08
2019-02-23T09:23:49.967Z,20.08
2019-02-23T09:24:49.968Z,20.08
2019-02-23T09:25:49.970Z,20.18
2019-02-23T09:26:49.974Z,20.08
2019-02-23T09:27:50.056Z,20.18
2019-02-23T09:28:49.984Z,20.08
2019-02-23T09:29:49.983Z,20.28
2019-02-23T09:30:49.985Z,20.09
2019-02-23T09:31:49.988Z,20.08
2019-02-23T09:32:49.990Z,20.08
2019-02-23T09:33:49.996Z,20.18
2019-02-23T09:34:49.998Z,20.19
2019-02-23T09:35:49.998Z,20.18
2019-02-23T09:36:50.004Z,20.08
2019-02-23T09:37:50.004Z,20.28
2019-02-23T09:38:50.008Z,20.08
2019-02-23T09:39:50.016Z,20.08
2019-02-23T09:40:50.013Z,20.28
2019-02-23T09:41:50.022Z,20.18
2019-02-23T09:42:50.019Z,20.18
2019-02-23T09:43:50.021Z,20.18
2019-02-23T09:44:50.023Z,20.18
2019-02-23T09:45:50.027Z,20.08
2019-02-23T09:46:50.031Z,20.18
2019-02-23T09:47:50.032Z,20.18
2019-02-23T09:48:50.037Z,20.18
2019-02-23T09:49:50.040Z,20.08
2019-02-23T09:50:50.051Z,20.08
2019-02-23T09:51:50.051Z,20.08
2019-02-23T09:52:50.152Z,20.08
2019-02-23T09:53:50.100Z,20.08
2019-02-23T09:54:50.056Z,20.08
2019-02-23T09:55:50.058Z,20.08
2019-02-23T09:56:50.059Z,20.18
2019-02-23T09:57:50.060Z,20.08
2019-02-23T09:58:50.064Z,20.28
2019-02-23T09:59:50.068Z,20.18
2019-02-23T10:00:50.169Z,20.08
2019-02-23T10:01:50.082Z,20.08
2019-02-23T10:02:50.078Z,20.18
2019-02-23T10:03:50.077Z,20.08
2019-02-23T10:04:50.085Z,20.08
2019-02-23T10:05:50.085Z,20.08
2019-02-23T10:06:50.084Z,20.08
2019-02-23T10:07:50.089Z,20.08
2019-02-23T10:08:50.094Z,20.08
2019-02-23T10:09:50.095Z,19.99
2019-02-23T10:10:50.197Z,20.08
2019-02-23T10:11:50.099Z,20.08
2019-02-23T10:12:50.105Z,20.08
2019-02-23T10:13:50.106Z,20.08
2019-02-23T10:14:50.111Z,20.18
2019-02-23T10:15:50.113Z,20.08
2019-02-23T10:16:50.114Z,20.18
2019-02-23T10:17:50.133Z,20.08
2019-02-23T10:18:50.132Z,20.08
2019-02-23T10:19:50.376Z,20.18
2019-02-23T10:20:50.135Z,20.08
2019-02-23T10:21:50.136Z,20.18
2019-02-23T10:22:50.181Z,20.18
2019-02-23T10:23:50.134Z,20.08
2019-02-23T10:24:50.140Z,20.18
2019-02-23T10:25:50.139Z,19.79
2019-02-23T10:26:50.149Z,20.18
2019-02-23T10:27:50.153Z,20.08
2019-02-23T10:28:50.152Z,19.79
2019-02-23T10:29:50.154Z,19.79
2019-02-23T10:30:50.154Z,20.28
2019-02-23T10:31:50.155Z,19.79
2019-02-23T10:32:50.162Z,19.89
2019-02-23T10:33:50.163Z,20.18
2019-02-23T10:34:50.164Z,19.79
2019-02-23T10:35:50.166Z,19.79
2019-02-23T10:36:50.169Z,19.70
2019-02-23T10:37:50.176Z,19.89
2019-02-23T10:38:50.179Z,19.79
2019-02-23T10:39:50.278Z,20.28
2019-02-23T10:40:50.182Z,19.99
2019-02-23T10:41:50.182Z,19.89
2019-02-23T10:42:50.186Z,19.89
2019-02-23T10:43:50.196Z,19.89
2019-02-23T10:44:50.191Z,19.89
2019-02-23T10:45:50.196Z,19.79
2019-02-23T10:46:50.199Z,19.99
2019-02-23T10:47:50.405Z,19.79
2019-02-23T10:48:50.203Z,19.99
2019-02-23T10:49:50.259Z,19.89
2019-02-23T10:50:50.260Z,19.99
2019-02-23T10:51:50.213Z,19.99
2019-02-23T10:52:50.215Z,19.89
2019-02-23T10:53:50.217Z,19.89
2019-02-23T10:54:50.220Z,19.99
2019-02-23T10:55:50.222Z,19.79
2019-02-23T10:56:50.238Z,19.89
2019-02-23T10:57:50.229Z,19.89
2019-02-23T10:58:50.281Z,19.89
2019-02-23T10:59:50.234Z,19.89
2019-02-23T11:00:50.344Z,19.70
2019-02-23T11:01:50.390Z,19.79
2019-02-23T11:02:50.244Z,19.60
2019-02-23T11:03:50.246Z,19.60
2019-02-23T11:04:50.289Z,19.70
2019-02-23T11:05:50.253Z,19.70
2019-02-23T11:06:50.260Z,19.70
2019-02-23T11:07:50.262Z,19.70
2019-02-23T11:08:50.310Z,19.79
2019-02-23T11:09:50.269Z,19.89
2019-02-23T11:10:50.266Z,19.79
2019-02-23T11:11:50.268Z,19.70
2019-02-23T11:12:50.325Z,19.79
2019-02-23T11:13:50.273Z,19.50
2019-02-23T11:14:50.277Z,19.70
2019-02-23T11:15:50.279Z,19.70
2019-02-23T11:16:50.281Z,19.79
2019-02-23T11:17:50.386Z,19.70
2019-02-23T11:18:50.288Z,19.70
2019-02-23T11:19:50.289Z,19.70
2019-02-23T11:20:50.293Z,19.60
2019-02-23T11:21:50.397Z,19.70
2019-02-23T11:22:50.299Z,19.60
2019-02-23T11:23:50.352Z,19.60
2019-02-23T11:24:50.304Z,19.79
2019-02-23T11:25:50.309Z,19.70
2019-02-23T11:26:50.311Z,19.70
2019-02-23T11:27:50.312Z,19.60
2019-02-23T11:28:50.316Z,19.60
2019-02-23T11:29:50.319Z,19.60
2019-02-23T11:30:50.329Z,19.70
2019-02-23T11:31:50.323Z,19.60
2019-02-23T11:32:50.326Z,19.70
2019-02-23T11:33:50.329Z,19.60
2019-02-23T11:34:50.382Z,19.70
2019-02-23T11:35:50.334Z,19.60
2019-02-23T11:36:50.340Z,19.60
2019-02-23T11:37:50.340Z,19.70
2019-02-23T11:38:50.343Z,19.70
2019-02-23T11:39:50.348Z,19.50
2019-02-23T11:40:50.348Z,19.70
2019-02-23T11:41:50.352Z,19.70
2019-02-23T11:42:50.356Z,19.70
2019-02-23T11:43:50.357Z,19.60
2019-02-23T11:44:50.361Z,19.79
2019-02-23T11:45:50.414Z,19.60
2019-02-23T11:46:59.764Z,19.70
2019-02-23T11:47:50.367Z,19.70
2019-02-23T11:48:50.372Z,19.70
2019-02-23T11:49:50.374Z,19.79
2019-02-23T11:50:50.377Z,19.99
2019-02-23T11:51:50.379Z,19.99
2019-02-23T11:52:50.383Z,19.70
2019-02-23T11:53:54.943Z,19.70
2019-02-23T11:54:50.389Z,19.70
2019-02-23T11:55:50.390Z,19.79
2019-02-23T11:56:50.393Z,19.79
2019-02-23T11:57:50.397Z,19.89
2019-02-23T11:58:50.402Z,19.60
2019-02-23T11:59:50.402Z,19.31
2019-02-23T12:00:50.406Z,19.31
2019-02-23T12:01:50.408Z,19.60
2019-02-23T12:02:52.829Z,19.79
2019-02-23T12:03:50.413Z,19.40
2019-02-23T12:04:50.421Z,19.70
2019-02-23T12:05:50.424Z,19.70
2019-02-23T12:06:50.522Z,19.60
2019-02-23T12:07:50.430Z,19.50
2019-02-23T12:08:50.429Z,19.50
2019-02-23T12:09:50.582Z,19.60
2019-02-23T12:10:50.438Z,19.60
2019-02-23T12:11:50.537Z,19.70
2019-02-23T12:12:50.488Z,19.79
2019-02-23T12:13:50.445Z,19.40
2019-02-23T12:14:50.448Z,19.50
2019-02-23T12:15:50.447Z,19.60
2019-02-23T12:16:50.451Z,19.50
2019-02-23T12:17:50.452Z,19.70
2019-02-23T12:18:50.456Z,19.70
2019-02-23T12:19:50.457Z,19.70
2019-02-23T12:20:50.463Z,19.60
2019-02-23T12:21:50.564Z,19.50
2019-02-23T12:22:50.473Z,19.50
2019-02-23T12:23:50.469Z,19.40
2019-02-23T12:24:50.571Z,19.50
2019-02-23T12:25:50.473Z,19.50
2019-02-23T12:26:50.478Z,19.50
2019-02-23T12:27:50.487Z,19.50
2019-02-23T12:28:50.493Z,19.60
2019-02-23T12:29:50.493Z,19.50
2019-02-23T12:30:50.490Z,19.50
2019-02-23T12:31:50.491Z,19.50
2019-02-23T12:32:50.495Z,19.60
2019-02-23T12:33:50.498Z,19.50
2019-02-23T12:34:50.501Z,19.60
2019-02-23T12:35:50.502Z,19.40
2019-02-23T12:36:50.505Z,19.40
2019-02-23T12:37:50.512Z,19.50
2019-02-23T12:38:50.509Z,19.50
2019-02-23T12:39:50.613Z,19.50
2019-02-23T12:40:50.516Z,19.50
2019-02-23T12:41:50.519Z,19.40
2019-02-23T12:42:50.523Z,19.50
2019-02-23T12:43:50.528Z,19.50
2019-02-23T12:44:50.527Z,19.50
2019-02-23T12:45:50.534Z,19.40
2019-02-23T12:46:50.535Z,19.40
2019-02-23T12:47:51.275Z,19.50
2019-02-23T12:48:50.540Z,19.50
2019-02-23T12:49:50.543Z,19.40
2019-02-23T12:50:50.545Z,19.40
2019-02-23T12:51:50.650Z,19.50
2019-02-23T12:52:50.555Z,19.50